MT WASHINGTON (MTW)

Elevation: 920' · LOS ANGELES R basin · Operator: Los Angeles County Fire Dept

Query executed Saturday at 21:07:10   clock

Provisional data, subject to change.
Select a sensor type for a plot of data.

Earlier

Date   /   Time   RAIN     TEMP     REL HUM     BAR PRE     FUEL MS     FUEL TP     WIND SP     WIND DR     PEAK WS     PEAK WD     SOLAR R     BAT VOL    
(PDT)INCHES   DEG F   %   INCHES   %   DEG F   MPH   DEG   MPH   DEG   W/M^2   VOLTS  
08/29/2014 22:00 5.08 68 76 -- 9 67 -- -- -- -- 0.00 12.5
08/29/2014 23:00 5.08 66 82 -- 11 66 -- -- -- -- 0.00 12.4
08/30/2014 00:00 5.08 65 84 -- 12 64 -- -- -- -- 0.00 12.4
08/30/2014 01:00 5.08 64 85 -- 13 63 -- -- -- -- 0.00 12.4
08/30/2014 02:00 5.08 66 82 -- 14 64 -- -- -- -- 0.00 12.4
08/30/2014 03:00 5.08 65 80 -- 14 63 -- -- -- -- 0.00 12.3
08/30/2014 04:00 5.08 65 81 -- 14 64 -- -- -- -- 0.00 12.3
08/30/2014 05:00 5.08 64 85 -- 15 63 -- -- -- -- 0.00 12.3
08/30/2014 06:00 5.08 64 88 -- 15 63 -- -- -- -- 6.00 12.3
08/30/2014 07:00 5.08 68 77 -- 15 68 -- -- -- -- 140.00 13.4
08/30/2014 08:00 5.08 72 67 -- 14 71 -- -- -- -- 357.00 13.5
08/30/2014 09:00 5.08 77 59 -- 13 81 -- -- -- -- 544.00 13.4
08/30/2014 10:00 5.08 82 45 -- 11 89 -- -- -- -- 703.00 13.4
08/30/2014 11:00 5.08 89 31 -- 9 104 -- -- -- -- 815.00 13.4
08/30/2014 12:00 5.08 90 27 -- 8 105 -- -- -- -- 865.00 13.4
08/30/2014 13:00 5.08 93 25 -- 7 109 -- -- -- -- 855.00 13.4
08/30/2014 14:00 5.08 91 33 -- 7 105 -- -- -- -- 774.00 13.4
08/30/2014 15:00 5.08 90 29 -- 7 96 -- -- -- -- 535.00 13.4
08/30/2014 16:00 5.08 90 30 -- 7 90 -- -- -- -- 421.00 13.4
08/30/2014 17:00 5.08 82 38 -- 7 81 -- -- -- -- 233.00 12.6
08/30/2014 18:00 5.08 78 51 -- 7 78 -- -- -- -- 19.00 12.5
08/30/2014 19:00 5.08 75 57 -- 8 74 -- -- -- -- 3.00 12.5
08/30/2014 20:00 5.08 74 60 -- 9 73 -- -- -- -- 0.00 12.5
08/30/2014 21:00 -- -- -- -- -- -- -- -- -- -- -- --

Later | Latest

Warning! This data is preliminary and subject to revision.

Download Data Now Download Data Now | Show MTW Map | 24 Hours MTW Data | Plot all MTW Sensors | Daily MTW Data | MTW Info